createdAt,value
2023-03-31T00:01:47.276Z,62.51
2023-03-31T00:04:14.834Z,62.41
2023-03-31T00:06:42.755Z,62.46
2023-03-31T00:09:13.049Z,62.29
2023-03-31T00:11:40.645Z,62.29
2023-03-31T00:14:09.430Z,62.55
2023-03-31T00:16:37.486Z,62.73
2023-03-31T00:19:05.862Z,62.86
2023-03-31T00:21:36.958Z,63.43
2023-03-31T00:24:06.361Z,63.81
2023-03-31T00:26:34.462Z,63.78
2023-03-31T00:29:02.047Z,63.31
2023-03-31T00:31:30.853Z,63.09
2023-03-31T00:33:58.273Z,63.80
2023-03-31T00:36:29.249Z,63.05
2023-03-31T00:39:02.430Z,62.71
2023-03-31T00:41:30.284Z,62.65
2023-03-31T00:44:08.337Z,63.37
2023-03-31T00:46:42.300Z,63.48
2023-03-31T00:49:20.901Z,63.04
2023-03-31T00:51:51.012Z,63.35
2023-03-31T00:54:19.660Z,63.03
2023-03-31T00:56:48.677Z,63.83
2023-03-31T00:59:16.544Z,63.46
2023-03-31T01:01:48.335Z,63.60
2023-03-31T01:04:16.790Z,63.75
2023-03-31T01:06:57.395Z,63.73
2023-03-31T01:09:25.418Z,63.33
2023-03-31T01:11:52.493Z,63.15
2023-03-31T01:14:19.810Z,64.12
2023-03-31T01:16:48.148Z,63.82
2023-03-31T01:19:26.107Z,64.17
2023-03-31T01:22:31.969Z,64.40
2023-03-31T01:25:32.662Z,64.08
2023-03-31T01:28:15.799Z,65.18
2023-03-31T01:31:18.496Z,65.17
2023-03-31T01:34:36.012Z,64.64
2023-03-31T01:37:26.533Z,65.21
2023-03-31T01:40:19.934Z,65.10
2023-03-31T01:42:53.275Z,64.88
2023-03-31T01:45:33.756Z,64.74
2023-03-31T01:48:08.341Z,64.43
2023-03-31T01:50:38.406Z,64.44
2023-03-31T01:53:15.115Z,64.54
2023-03-31T01:55:50.737Z,64.93
2023-03-31T01:58:21.796Z,64.99
2023-03-31T02:00:57.618Z,64.75
2023-03-31T02:03:30.336Z,64.85
2023-03-31T02:06:01.011Z,64.91
2023-03-31T02:08:32.725Z,64.95
2023-03-31T02:11:01.569Z,64.83
2023-03-31T02:13:30.137Z,65.34
2023-03-31T02:16:03.581Z,64.89
2023-03-31T02:18:38.328Z,65.14
2023-03-31T02:21:08.828Z,65.22
2023-03-31T02:23:38.131Z,64.88
2023-03-31T02:26:12.126Z,65.22
2023-03-31T02:28:39.784Z,65.25
2023-03-31T02:31:20.411Z,65.16
2023-03-31T02:33:48.252Z,65.07
2023-03-31T02:36:16.198Z,65.59
2023-03-31T02:38:47.798Z,65.62
2023-03-31T02:41:16.485Z,65.70
2023-03-31T02:43:43.460Z,65.75
2023-03-31T02:46:10.546Z,65.79
2023-03-31T02:48:41.736Z,65.97
2023-03-31T02:51:42.296Z,65.92
2023-03-31T02:54:31.856Z,65.82
2023-03-31T02:57:27.166Z,66.07
2023-03-31T03:00:08.211Z,66.22
2023-03-31T03:02:49.284Z,66.29
2023-03-31T03:05:28.532Z,66.15
2023-03-31T03:07:59.121Z,67.00
2023-03-31T03:10:35.714Z,66.57
2023-03-31T03:13:12.322Z,66.73
2023-03-31T03:15:46.236Z,66.79
2023-03-31T03:18:14.241Z,66.43
2023-03-31T03:20:43.408Z,66.25
2023-03-31T03:23:10.418Z,66.13
2023-03-31T03:25:37.840Z,66.73
2023-03-31T03:28:07.202Z,66.76
2023-03-31T03:30:34.594Z,66.70
2023-03-31T03:33:02.041Z,66.95
2023-03-31T03:35:29.430Z,66.72
2023-03-31T03:37:56.410Z,66.67
2023-03-31T03:40:24.030Z,67.12
2023-03-31T03:42:51.071Z,67.42
2023-03-31T03:45:20.118Z,67.06
2023-03-31T03:47:47.115Z,67.56
2023-03-31T03:50:16.186Z,67.32
2023-03-31T03:52:44.301Z,67.32
2023-03-31T03:55:12.267Z,67.56
2023-03-31T03:57:39.486Z,67.50
2023-03-31T04:00:12.378Z,67.60
2023-03-31T04:02:41.158Z,67.46
2023-03-31T04:05:09.746Z,67.20
2023-03-31T04:07:36.729Z,67.16
2023-03-31T04:10:04.180Z,67.36
2023-03-31T04:12:33.854Z,67.36
2023-03-31T04:15:01.301Z,67.46
2023-03-31T04:17:34.759Z,67.41
2023-03-31T04:20:07.568Z,67.55
2023-03-31T04:22:41.054Z,67.88
2023-03-31T04:25:15.042Z,67.68
2023-03-31T04:27:54.896Z,67.57
2023-03-31T04:30:23.308Z,67.34
2023-03-31T04:32:51.477Z,67.34
2023-03-31T04:35:20.873Z,67.29
2023-03-31T04:37:48.527Z,67.36
2023-03-31T04:40:16.566Z,67.55
2023-03-31T04:42:43.948Z,67.66
2023-03-31T04:45:12.254Z,67.58
2023-03-31T04:47:39.511Z,67.87
2023-03-31T04:50:08.647Z,68.01
2023-03-31T04:52:38.837Z,67.97
2023-03-31T04:55:07.384Z,68.19
2023-03-31T04:57:34.311Z,67.88
2023-03-31T05:00:01.698Z,67.93
2023-03-31T05:02:28.778Z,67.58
2023-03-31T05:04:56.406Z,68.14
2023-03-31T05:07:23.578Z,68.20
2023-03-31T05:09:52.205Z,67.90
2023-03-31T05:12:20.735Z,67.83
2023-03-31T05:14:48.073Z,67.91
2023-03-31T05:17:17.979Z,68.00
2023-03-31T05:19:45.129Z,68.08
2023-03-31T05:22:12.086Z,67.85
2023-03-31T05:24:39.306Z,67.94
2023-03-31T05:27:07.799Z,67.63
2023-03-31T05:29:35.167Z,67.38
2023-03-31T05:32:02.269Z,68.15
2023-03-31T05:34:30.095Z,68.07
2023-03-31T05:36:57.875Z,67.85
2023-03-31T05:39:25.237Z,70.02
2023-03-31T05:41:52.256Z,69.88
2023-03-31T05:44:21.227Z,69.68
2023-03-31T05:46:48.330Z,68.53
2023-03-31T05:49:17.032Z,67.81
2023-03-31T05:51:43.976Z,67.08
2023-03-31T05:54:11.465Z,66.81
2023-03-31T05:56:38.635Z,67.78
2023-03-31T05:59:06.380Z,68.01
2023-03-31T06:01:34.956Z,66.72
2023-03-31T06:04:02.945Z,66.22
2023-03-31T06:06:30.334Z,64.98
2023-03-31T06:08:57.726Z,64.77
2023-03-31T06:11:24.790Z,64.16
2023-03-31T06:13:52.047Z,62.70
2023-03-31T06:16:19.837Z,61.76
2023-03-31T06:18:48.728Z,61.21
2023-03-31T06:21:18.533Z,60.03
2023-03-31T06:23:46.202Z,59.24
2023-03-31T06:26:14.547Z,59.60
2023-03-31T06:28:41.958Z,59.87
2023-03-31T06:31:12.631Z,60.35
2023-03-31T06:33:41.792Z,60.64
2023-03-31T06:36:13.112Z,60.93
2023-03-31T06:38:40.657Z,60.99
2023-03-31T06:41:09.559Z,61.18
2023-03-31T06:43:37.096Z,61.40
2023-03-31T06:46:05.084Z,61.64
2023-03-31T06:48:32.549Z,61.77
2023-03-31T06:51:00.626Z,61.60
2023-03-31T06:53:29.486Z,61.50
2023-03-31T06:55:57.001Z,60.98
2023-03-31T06:58:24.236Z,60.44
2023-03-31T07:00:51.562Z,60.05
2023-03-31T07:03:22.391Z,59.73
2023-03-31T07:05:50.305Z,59.35
2023-03-31T07:08:18.411Z,58.94
2023-03-31T07:10:49.306Z,58.90
2023-03-31T07:13:17.856Z,58.44
2023-03-31T07:15:47.888Z,58.28
2023-03-31T07:18:15.987Z,57.82
2023-03-31T07:20:43.841Z,57.70
2023-03-31T07:23:11.458Z,56.73
2023-03-31T07:25:38.492Z,57.04
2023-03-31T07:28:07.213Z,62.81
2023-03-31T07:30:34.406Z,62.49
2023-03-31T07:33:01.731Z,58.56
2023-03-31T07:35:31.061Z,55.84
2023-03-31T07:37:59.132Z,54.39
2023-03-31T07:40:29.242Z,53.10
2023-03-31T07:42:57.120Z,51.75
2023-03-31T07:45:27.039Z,53.07
2023-03-31T07:47:54.648Z,52.71
2023-03-31T07:50:22.797Z,51.80
2023-03-31T07:52:50.690Z,51.07
2023-03-31T07:55:19.868Z,48.95
2023-03-31T07:57:47.814Z,50.03
2023-03-31T08:00:16.033Z,50.61
2023-03-31T08:02:44.871Z,50.91
2023-03-31T08:05:16.456Z,50.90
2023-03-31T08:07:45.932Z,51.19
2023-03-31T08:10:16.274Z,51.21
2023-03-31T08:12:43.888Z,51.87
2023-03-31T08:15:11.526Z,50.79
2023-03-31T08:17:39.274Z,49.73
2023-03-31T08:20:10.404Z,49.75
2023-03-31T08:22:38.666Z,49.70
2023-03-31T08:25:08.352Z,49.65
2023-03-31T08:27:37.169Z,49.44
2023-03-31T08:30:05.191Z,49.74
2023-03-31T08:32:33.503Z,50.02
2023-03-31T08:35:00.839Z,49.92
2023-03-31T08:37:29.584Z,49.55
2023-03-31T08:39:56.634Z,49.05
2023-03-31T08:42:33.768Z,49.39
2023-03-31T08:45:04.737Z,49.68
2023-03-31T08:47:35.008Z,49.56
2023-03-31T08:50:07.433Z,49.29
2023-03-31T08:52:41.660Z,49.02
2023-03-31T08:55:13.788Z,49.06
2023-03-31T08:57:52.396Z,48.76
2023-03-31T09:00:20.360Z,48.70
2023-03-31T09:02:55.628Z,48.44
2023-03-31T09:05:53.081Z,47.74
2023-03-31T09:08:36.205Z,47.68
2023-03-31T09:11:11.958Z,47.70
2023-03-31T09:13:53.783Z,47.70
2023-03-31T09:16:26.718Z,47.21
2023-03-31T09:18:57.144Z,47.35
2023-03-31T09:21:30.668Z,47.59
2023-03-31T09:24:05.441Z,47.20
2023-03-31T09:26:38.452Z,46.69
2023-03-31T09:29:14.469Z,46.41
2023-03-31T09:31:44.687Z,46.08
2023-03-31T09:34:15.660Z,45.94
2023-03-31T09:36:43.252Z,47.11
2023-03-31T09:39:15.000Z,47.09
2023-03-31T09:41:45.660Z,44.99
2023-03-31T09:44:36.580Z,43.99
2023-03-31T09:47:10.920Z,44.48
2023-03-31T09:49:39.754Z,44.22
2023-03-31T09:52:16.106Z,44.12
2023-03-31T09:54:50.024Z,44.41
2023-03-31T09:57:26.438Z,44.54
2023-03-31T09:59:54.174Z,44.20
2023-03-31T10:02:30.434Z,43.46
2023-03-31T10:04:57.826Z,43.33
2023-03-31T10:07:26.289Z,42.28
2023-03-31T10:09:55.134Z,42.42
2023-03-31T10:12:24.514Z,42.16
2023-03-31T10:14:53.468Z,41.41
2023-03-31T10:17:22.770Z,41.75
2023-03-31T10:19:52.747Z,41.79
2023-03-31T10:22:28.409Z,41.84
2023-03-31T10:25:10.660Z,41.92
2023-03-31T10:27:42.164Z,41.65
2023-03-31T10:30:12.605Z,41.98
2023-03-31T10:32:43.202Z,42.01
2023-03-31T10:35:23.113Z,41.50
2023-03-31T10:37:54.515Z,41.31
2023-03-31T10:40:26.129Z,41.36
2023-03-31T10:43:01.788Z,42.39
2023-03-31T10:45:37.450Z,43.40
2023-03-31T10:48:16.918Z,40.11
2023-03-31T10:50:44.314Z,39.99
2023-03-31T10:53:14.193Z,39.19
2023-03-31T10:55:54.125Z,39.41
2023-03-31T10:58:34.417Z,39.48
2023-03-31T11:01:17.077Z,39.41
2023-03-31T11:03:59.320Z,39.37
2023-03-31T11:06:34.054Z,39.01
2023-03-31T11:09:14.708Z,41.86
2023-03-31T11:12:02.108Z,39.93
2023-03-31T11:14:40.492Z,39.52
2023-03-31T11:17:12.800Z,38.42
2023-03-31T11:19:50.516Z,37.90
2023-03-31T11:22:26.292Z,38.09
2023-03-31T11:25:18.942Z,38.43
2023-03-31T11:28:17.587Z,38.40
2023-03-31T11:30:51.245Z,38.48
2023-03-31T11:33:44.543Z,38.68
2023-03-31T11:36:36.869Z,38.92
2023-03-31T11:39:22.135Z,38.63
2023-03-31T11:41:52.284Z,38.95
2023-03-31T11:44:24.477Z,38.46
2023-03-31T11:46:56.090Z,37.44
2023-03-31T11:49:27.240Z,37.98
2023-03-31T11:51:57.056Z,38.19
2023-03-31T11:54:31.489Z,38.51
2023-03-31T11:57:02.321Z,38.25
2023-03-31T11:59:32.907Z,38.03
2023-03-31T12:02:11.285Z,37.71
2023-03-31T12:04:42.896Z,38.41
2023-03-31T12:07:24.256Z,38.09
2023-03-31T12:10:05.419Z,37.48
2023-03-31T12:12:35.940Z,37.84
2023-03-31T12:15:14.080Z,38.24
2023-03-31T12:17:43.640Z,38.81
2023-03-31T12:20:17.932Z,38.87
2023-03-31T12:22:48.491Z,38.39
2023-03-31T12:25:22.881Z,39.05
2023-03-31T12:27:51.702Z,38.25
2023-03-31T12:30:28.546Z,38.59
2023-03-31T12:33:01.190Z,38.23
2023-03-31T12:35:39.022Z,39.08
2023-03-31T12:38:17.553Z,38.40
2023-03-31T12:40:58.851Z,38.14
2023-03-31T12:43:49.083Z,37.69
2023-03-31T12:46:29.635Z,37.73
2023-03-31T12:49:11.445Z,38.07
2023-03-31T12:52:01.027Z,38.44
2023-03-31T12:55:09.573Z,38.47
2023-03-31T12:57:38.356Z,38.88
2023-03-31T13:00:24.149Z,38.30
2023-03-31T13:03:34.146Z,38.55
2023-03-31T13:06:03.041Z,38.12
2023-03-31T13:08:52.196Z,36.55
2023-03-31T13:11:20.987Z,35.44
2023-03-31T13:16:48.080Z,35.44
2023-03-31T13:19:28.191Z,35.81
2023-03-31T13:21:58.181Z,35.86
2023-03-31T13:24:27.415Z,36.14
2023-03-31T13:26:59.369Z,35.72
2023-03-31T13:29:40.504Z,35.46
2023-03-31T13:32:23.062Z,35.71
2023-03-31T13:34:58.794Z,35.33
2023-03-31T13:37:45.106Z,35.03
2023-03-31T13:40:33.748Z,35.07
2023-03-31T13:43:34.242Z,34.87
2023-03-31T13:46:23.519Z,34.25
2023-03-31T13:49:01.446Z,34.24
2023-03-31T13:51:55.347Z,34.36
2023-03-31T13:54:55.007Z,34.62
2023-03-31T13:58:24.945Z,34.04
2023-03-31T14:01:25.632Z,33.76
2023-03-31T14:04:04.768Z,33.32
2023-03-31T14:06:38.107Z,33.89
2023-03-31T14:09:08.093Z,34.28
2023-03-31T14:11:36.606Z,34.80
2023-03-31T14:14:07.670Z,34.79
2023-03-31T14:16:39.270Z,34.79
2023-03-31T14:19:29.112Z,34.98
2023-03-31T14:22:03.444Z,34.80
2023-03-31T14:24:38.027Z,34.36
2023-03-31T14:27:18.658Z,33.82
2023-03-31T14:29:57.861Z,34.77
2023-03-31T14:32:37.138Z,36.09
2023-03-31T14:35:26.674Z,34.41
2023-03-31T14:37:55.254Z,34.33
2023-03-31T14:40:23.211Z,34.52
2023-03-31T14:42:51.649Z,34.03
2023-03-31T14:45:22.150Z,34.11
2023-03-31T14:47:57.285Z,34.08
2023-03-31T14:50:31.325Z,34.20
2023-03-31T14:52:59.640Z,33.61
2023-03-31T14:55:35.639Z,33.61
2023-03-31T14:58:21.486Z,34.12
2023-03-31T15:00:49.036Z,33.82
2023-03-31T15:03:17.673Z,33.61
2023-03-31T15:05:48.850Z,33.16
2023-03-31T15:08:19.724Z,33.01
2023-03-31T15:10:54.013Z,33.02
2023-03-31T15:13:33.790Z,32.49
2023-03-31T15:16:18.985Z,32.03
2023-03-31T15:18:51.766Z,31.98
2023-03-31T15:21:21.654Z,32.23
2023-03-31T15:23:53.066Z,31.96
2023-03-31T15:26:34.392Z,32.40
2023-03-31T15:29:11.861Z,32.19
2023-03-31T15:31:41.148Z,32.25
2023-03-31T15:34:27.963Z,32.52
2023-03-31T15:36:57.238Z,32.85
2023-03-31T15:39:24.833Z,32.81
2023-03-31T15:42:01.168Z,32.89
2023-03-31T15:44:38.014Z,32.78
2023-03-31T15:47:16.194Z,32.44
2023-03-31T15:49:54.900Z,33.04
2023-03-31T15:52:27.675Z,32.82
2023-03-31T15:54:55.030Z,32.98
2023-03-31T15:57:32.028Z,33.17
2023-03-31T16:00:00.894Z,33.29
2023-03-31T16:02:39.854Z,33.26
2023-03-31T16:07:48.066Z,33.90
2023-03-31T16:10:19.253Z,34.11
2023-03-31T16:12:53.847Z,34.22
2023-03-31T16:15:31.506Z,34.52
2023-03-31T16:18:02.763Z,34.55
2023-03-31T16:20:33.386Z,35.25
2023-03-31T16:23:01.182Z,35.44
2023-03-31T16:25:31.429Z,35.30
2023-03-31T16:28:01.191Z,35.68
2023-03-31T16:30:37.266Z,36.34
2023-03-31T16:33:07.108Z,36.39
2023-03-31T16:35:39.741Z,36.54
2023-03-31T16:38:08.800Z,36.85
2023-03-31T16:40:38.984Z,37.00
2023-03-31T16:43:12.077Z,37.05
2023-03-31T16:45:58.001Z,37.35
2023-03-31T16:48:27.348Z,37.40
2023-03-31T16:50:56.411Z,37.45
2023-03-31T16:53:31.511Z,37.44
2023-03-31T16:56:00.995Z,37.75
2023-03-31T16:58:29.500Z,37.95
2023-03-31T17:00:58.097Z,38.45
2023-03-31T17:03:26.122Z,38.55
2023-03-31T17:05:56.856Z,38.73
2023-03-31T17:08:27.978Z,39.03
2023-03-31T17:11:02.130Z,39.19
2023-03-31T17:13:30.858Z,39.37
2023-03-31T17:18:49.664Z,40.06
2023-03-31T17:21:19.961Z,40.19
2023-03-31T17:23:49.763Z,40.69
2023-03-31T17:26:20.727Z,40.88
2023-03-31T17:28:48.107Z,41.23
2023-03-31T17:31:18.242Z,41.47
2023-03-31T17:33:46.347Z,41.83
2023-03-31T17:36:13.759Z,42.03
2023-03-31T17:38:42.030Z,42.29
2023-03-31T17:41:11.450Z,42.43
2023-03-31T17:43:39.083Z,42.60
2023-03-31T17:46:12.918Z,42.97
2023-03-31T17:48:43.270Z,42.67
2023-03-31T17:51:13.853Z,42.78
2023-03-31T17:53:41.950Z,43.30
2023-03-31T17:56:09.116Z,43.06
2023-03-31T17:58:36.265Z,43.12
2023-03-31T18:01:04.948Z,43.52
2023-03-31T18:03:32.507Z,43.46
2023-03-31T18:06:05.029Z,43.83
2023-03-31T18:08:33.149Z,44.03
2023-03-31T18:11:01.040Z,44.20
2023-03-31T18:13:29.123Z,44.24
2023-03-31T18:15:56.711Z,43.95
2023-03-31T18:18:26.720Z,44.08
2023-03-31T18:20:53.909Z,43.98
2023-03-31T18:23:23.906Z,44.44
2023-03-31T18:25:51.710Z,44.77
2023-03-31T18:28:22.190Z,45.03
2023-03-31T18:30:49.315Z,45.31
2023-03-31T18:33:16.738Z,45.51
2023-03-31T18:35:44.493Z,45.38
2023-03-31T18:38:12.123Z,45.61
2023-03-31T18:40:47.930Z,45.56
2023-03-31T18:43:15.278Z,45.77
2023-03-31T18:45:45.292Z,45.95
2023-03-31T18:48:12.792Z,45.75
2023-03-31T18:50:39.811Z,45.88
2023-03-31T18:53:07.469Z,45.96
2023-03-31T18:55:34.646Z,46.26
2023-03-31T18:58:03.722Z,45.99
2023-03-31T19:00:30.925Z,46.26
2023-03-31T19:02:58.572Z,46.26
2023-03-31T19:05:25.712Z,46.40
2023-03-31T19:07:53.130Z,46.41
2023-03-31T19:10:20.177Z,46.38
2023-03-31T19:12:48.643Z,46.14
2023-03-31T19:15:17.539Z,46.20
2023-03-31T19:17:45.197Z,46.09
2023-03-31T19:20:18.497Z,46.04
2023-03-31T19:22:49.299Z,45.82
2023-03-31T19:25:17.691Z,45.93
2023-03-31T19:27:45.218Z,45.74
2023-03-31T19:30:18.277Z,45.59
2023-03-31T19:32:47.680Z,45.70
2023-03-31T19:35:21.248Z,45.55
2023-03-31T19:37:48.904Z,45.77
2023-03-31T19:40:16.086Z,45.74
2023-03-31T19:42:44.447Z,45.63
2023-03-31T19:45:11.721Z,45.80
2023-03-31T19:47:40.725Z,45.64
2023-03-31T19:50:08.756Z,45.46
2023-03-31T19:52:36.651Z,45.46
2023-03-31T19:55:07.224Z,45.29
2023-03-31T19:57:34.090Z,45.17
2023-03-31T20:00:04.002Z,45.19
2023-03-31T20:02:32.412Z,45.24
2023-03-31T20:05:01.806Z,45.25
2023-03-31T20:07:30.199Z,45.05
2023-03-31T20:09:57.509Z,44.94
2023-03-31T20:12:24.504Z,44.93
2023-03-31T20:14:51.845Z,44.86
2023-03-31T20:17:20.616Z,44.83
2023-03-31T20:19:48.020Z,44.93
2023-03-31T20:22:16.793Z,44.99
2023-03-31T20:24:44.169Z,44.77
2023-03-31T20:27:11.203Z,44.80
2023-03-31T20:29:38.724Z,44.93
2023-03-31T20:32:05.952Z,45.10
2023-03-31T20:34:34.068Z,45.67
2023-03-31T20:37:02.318Z,46.09
2023-03-31T20:39:31.179Z,46.21
2023-03-31T20:41:58.152Z,46.55
2023-03-31T20:44:25.613Z,46.63
2023-03-31T20:46:52.765Z,47.08
2023-03-31T20:49:20.074Z,46.87
2023-03-31T20:51:49.103Z,46.95
2023-03-31T20:54:17.018Z,46.98
2023-03-31T20:56:45.583Z,48.07
2023-03-31T20:59:15.029Z,48.58
2023-03-31T21:01:42.489Z,49.76
2023-03-31T21:04:11.307Z,49.87
2023-03-31T21:06:40.377Z,50.39
2023-03-31T21:09:08.788Z,50.57
2023-03-31T21:11:35.833Z,50.63
2023-03-31T21:14:05.790Z,50.80
2023-03-31T21:16:33.666Z,50.95
2023-03-31T21:19:01.201Z,51.06
2023-03-31T21:21:29.015Z,51.13
2023-03-31T21:23:56.492Z,51.15
2023-03-31T21:26:25.034Z,52.06
2023-03-31T21:28:56.215Z,52.41
2023-03-31T21:31:26.114Z,52.21
2023-03-31T21:33:57.538Z,52.31
2023-03-31T21:36:25.772Z,53.25
2023-03-31T21:38:54.285Z,52.87
2023-03-31T21:41:24.208Z,53.61
2023-03-31T21:43:52.299Z,53.73
2023-03-31T21:46:21.134Z,53.62
2023-03-31T21:48:50.425Z,54.44
2023-03-31T21:51:18.366Z,54.27
2023-03-31T21:53:46.066Z,54.10
2023-03-31T21:56:13.189Z,54.96
2023-03-31T21:58:40.597Z,54.46
2023-03-31T22:01:08.612Z,54.50
2023-03-31T22:03:36.764Z,55.49
2023-03-31T22:06:09.522Z,55.83
2023-03-31T22:08:38.119Z,56.49
2023-03-31T22:11:06.881Z,57.36
2023-03-31T22:13:35.324Z,56.80
2023-03-31T22:16:02.647Z,57.32
2023-03-31T22:18:30.954Z,58.16
2023-03-31T22:20:58.250Z,59.01
2023-03-31T22:23:27.768Z,58.85
2023-03-31T22:25:55.040Z,59.09
2023-03-31T22:28:22.252Z,59.77
2023-03-31T22:30:49.382Z,59.94
2023-03-31T22:33:16.759Z,59.67
2023-03-31T22:35:43.868Z,60.21
2023-03-31T22:38:12.755Z,59.89
2023-03-31T22:40:41.406Z,60.49
2023-03-31T22:43:08.855Z,60.95
2023-03-31T22:45:36.510Z,60.97
2023-03-31T22:48:05.051Z,62.00
2023-03-31T22:50:32.752Z,62.92
2023-03-31T22:52:59.977Z,63.76
2023-03-31T22:55:27.327Z,63.98
2023-03-31T22:57:55.979Z,63.35
2023-03-31T23:00:23.013Z,62.89
2023-03-31T23:02:50.740Z,63.74
2023-03-31T23:05:17.938Z,63.39
2023-03-31T23:07:45.395Z,62.90
2023-03-31T23:10:12.477Z,63.17
2023-03-31T23:12:39.986Z,63.43
2023-03-31T23:15:09.035Z,63.19
2023-03-31T23:17:36.649Z,62.92
2023-03-31T23:20:04.760Z,62.28
2023-03-31T23:22:32.050Z,62.42
2023-03-31T23:24:58.977Z,62.30
2023-03-31T23:27:26.243Z,62.00
2023-03-31T23:29:53.158Z,61.82
2023-03-31T23:32:21.977Z,62.00
2023-03-31T23:34:48.992Z,61.62
2023-03-31T23:37:16.550Z,61.98
2023-03-31T23:39:43.633Z,61.75
2023-03-31T23:42:13.766Z,61.40
2023-03-31T23:44:40.849Z,61.76
2023-03-31T23:47:08.117Z,61.42
2023-03-31T23:49:36.716Z,61.54
2023-03-31T23:52:04.731Z,61.58
2023-03-31T23:54:31.737Z,61.66
2023-03-31T23:56:58.927Z,61.29
2023-03-31T23:59:25.955Z,61.32
